createdAt,value
2023-01-13T00:01:40.243Z,9.68
2023-01-13T00:04:09.223Z,9.61
2023-01-13T00:06:36.498Z,9.54
2023-01-13T00:09:03.856Z,9.56
2023-01-13T00:11:31.098Z,9.55
2023-01-13T00:13:58.250Z,9.56
2023-01-13T00:16:25.489Z,9.58
2023-01-13T00:18:53.971Z,9.59
2023-01-13T00:21:23.036Z,9.58
2023-01-13T00:23:51.825Z,9.57
2023-01-13T00:26:21.255Z,9.65
2023-01-13T00:28:48.731Z,9.66
2023-01-13T00:31:17.671Z,9.76
2023-01-13T00:33:45.164Z,9.73
2023-01-13T00:36:15.431Z,9.78
2023-01-13T00:38:43.324Z,9.77
2023-01-13T00:41:12.504Z,9.80
2023-01-13T00:43:40.118Z,9.81
2023-01-13T00:46:09.417Z,9.82
2023-01-13T00:48:36.718Z,9.89
2023-01-13T00:51:06.033Z,9.89
2023-01-13T00:53:36.343Z,9.87
2023-01-13T00:56:05.557Z,9.86
2023-01-13T00:58:34.938Z,9.92
2023-01-13T01:01:03.475Z,9.86
2023-01-13T01:03:30.893Z,9.81
2023-01-13T01:06:05.565Z,9.85
2023-01-13T01:08:34.683Z,9.75
2023-01-13T01:11:03.231Z,9.68
2023-01-13T01:13:30.726Z,9.65
2023-01-13T01:15:58.224Z,9.59
2023-01-13T01:18:25.785Z,9.56
2023-01-13T01:20:52.959Z,9.54
2023-01-13T01:23:20.193Z,9.44
2023-01-13T01:25:48.689Z,9.47
2023-01-13T01:28:15.932Z,9.37
2023-01-13T01:30:43.089Z,9.34
2023-01-13T01:33:10.264Z,9.33
2023-01-13T01:35:39.128Z,9.30
2023-01-13T01:38:06.370Z,9.25
2023-01-13T01:40:33.529Z,9.25
2023-01-13T01:43:02.196Z,9.21
2023-01-13T01:45:30.695Z,9.18
2023-01-13T01:48:02.737Z,9.15
2023-01-13T01:50:31.173Z,9.13
2023-01-13T01:53:05.274Z,9.09
2023-01-13T01:55:35.428Z,9.12
2023-01-13T01:58:09.254Z,9.12
2023-01-13T02:00:36.612Z,9.08
2023-01-13T02:03:06.131Z,9.07
2023-01-13T02:05:33.342Z,9.00
2023-01-13T02:08:01.371Z,8.98
2023-01-13T02:10:30.389Z,8.90
2023-01-13T02:13:01.809Z,8.83
2023-01-13T02:15:37.815Z,8.90
2023-01-13T02:18:24.257Z,8.87
2023-01-13T02:21:03.748Z,8.82
2023-01-13T02:23:58.005Z,8.86
2023-01-13T02:26:59.105Z,8.84
2023-01-13T02:29:53.556Z,8.75
2023-01-13T02:32:28.206Z,8.72
2023-01-13T02:35:03.998Z,8.62
2023-01-13T02:37:36.845Z,8.60
2023-01-13T02:40:11.745Z,8.58
2023-01-13T02:42:45.664Z,8.63
2023-01-13T02:45:19.181Z,8.72
2023-01-13T02:47:48.316Z,8.70
2023-01-13T02:50:17.991Z,8.64
2023-01-13T02:52:50.628Z,8.61
2023-01-13T02:55:21.873Z,8.66
2023-01-13T02:57:50.556Z,8.62
2023-01-13T03:00:20.677Z,8.75
2023-01-13T03:02:48.306Z,8.83
2023-01-13T03:05:17.017Z,8.81
2023-01-13T03:07:55.885Z,8.77
2023-01-13T03:10:34.186Z,8.69
2023-01-13T03:13:12.624Z,8.76
2023-01-13T03:15:51.168Z,8.78
2023-01-13T03:18:31.403Z,8.78
2023-01-13T03:21:06.751Z,8.89
2023-01-13T03:23:40.926Z,8.81
2023-01-13T03:26:12.444Z,8.76
2023-01-13T03:28:44.574Z,8.76
2023-01-13T03:31:19.781Z,8.67
2023-01-13T03:33:54.675Z,8.70
2023-01-13T03:36:25.991Z,8.64
2023-01-13T03:38:56.673Z,8.58
2023-01-13T03:41:30.091Z,8.61
2023-01-13T03:44:04.811Z,8.57
2023-01-13T03:46:42.636Z,8.51
2023-01-13T03:49:14.016Z,8.51
2023-01-13T03:51:47.363Z,8.50
2023-01-13T03:54:18.940Z,8.39
2023-01-13T03:56:49.863Z,8.44
2023-01-13T03:59:22.544Z,8.43
2023-01-13T04:01:59.686Z,8.48
2023-01-13T04:04:30.824Z,8.45
2023-01-13T04:07:05.826Z,8.41
2023-01-13T04:09:41.110Z,8.48
2023-01-13T04:12:12.239Z,8.42
2023-01-13T04:14:40.804Z,8.62
2023-01-13T04:17:09.561Z,8.64
2023-01-13T04:19:36.785Z,8.66
2023-01-13T04:22:03.993Z,8.61
2023-01-13T04:24:31.304Z,8.52
2023-01-13T04:26:58.439Z,8.50
2023-01-13T04:29:26.376Z,8.51
2023-01-13T04:31:53.635Z,8.56
2023-01-13T04:34:22.189Z,8.54
2023-01-13T04:36:49.392Z,8.52
2023-01-13T04:39:16.829Z,8.51
2023-01-13T04:41:44.025Z,8.48
2023-01-13T04:44:11.269Z,8.47
2023-01-13T04:46:38.600Z,8.53
2023-01-13T04:49:06.232Z,8.51
2023-01-13T04:51:34.860Z,8.50
2023-01-13T04:54:02.116Z,8.59
2023-01-13T04:56:29.329Z,8.54
2023-01-13T04:58:56.645Z,8.53
2023-01-13T05:01:23.956Z,8.51
2023-01-13T05:03:51.258Z,8.46
2023-01-13T05:06:18.485Z,8.42
2023-01-13T05:08:47.264Z,8.40
2023-01-13T05:11:14.519Z,8.46
2023-01-13T05:13:41.745Z,8.39
2023-01-13T05:16:11.427Z,8.46
2023-01-13T05:18:38.750Z,8.49
2023-01-13T05:21:06.119Z,8.49
2023-01-13T05:23:33.428Z,8.51
2023-01-13T05:26:02.283Z,8.52
2023-01-13T05:28:32.265Z,8.57
2023-01-13T05:30:59.659Z,8.53
2023-01-13T05:33:27.006Z,8.55
2023-01-13T05:35:54.317Z,8.54
2023-01-13T05:38:21.643Z,8.49
2023-01-13T05:40:48.852Z,8.46
2023-01-13T05:43:19.278Z,8.37
2023-01-13T05:45:47.010Z,8.41
2023-01-13T05:48:15.026Z,8.45
2023-01-13T05:50:42.459Z,8.53
2023-01-13T05:53:09.631Z,8.51
2023-01-13T05:55:39.249Z,8.55
2023-01-13T05:58:07.337Z,8.58
2023-01-13T06:00:36.553Z,8.64
2023-01-13T06:03:04.238Z,8.61
2023-01-13T06:05:32.628Z,8.63
2023-01-13T06:08:01.535Z,8.69
2023-01-13T06:10:29.446Z,8.68
2023-01-13T06:12:56.844Z,8.65
2023-01-13T06:15:24.159Z,8.67
2023-01-13T06:17:52.813Z,8.74
2023-01-13T06:20:20.675Z,8.75
2023-01-13T06:22:49.274Z,8.81
2023-01-13T06:25:24.660Z,8.78
2023-01-13T06:27:53.084Z,8.78
2023-01-13T06:30:20.537Z,8.79
2023-01-13T06:32:53.831Z,8.79
2023-01-13T06:35:25.202Z,8.74
2023-01-13T06:37:55.756Z,8.72
2023-01-13T06:40:23.887Z,8.74
2023-01-13T06:42:53.884Z,8.75
2023-01-13T06:45:21.665Z,8.78
2023-01-13T06:47:49.023Z,8.78
2023-01-13T06:50:18.668Z,8.82
2023-01-13T06:52:45.934Z,8.80
2023-01-13T06:55:13.353Z,8.69
2023-01-13T06:57:49.074Z,8.60
2023-01-13T07:00:16.855Z,8.59
2023-01-13T07:02:44.126Z,8.53
2023-01-13T07:05:11.840Z,8.54
2023-01-13T07:07:40.894Z,8.54
2023-01-13T07:10:09.664Z,8.52
2023-01-13T07:12:37.857Z,8.48
2023-01-13T07:15:06.148Z,8.55
2023-01-13T07:17:33.413Z,8.41
2023-01-13T07:20:00.672Z,8.44
2023-01-13T07:22:27.859Z,8.35
2023-01-13T07:24:56.575Z,8.33
2023-01-13T07:27:23.852Z,8.44
2023-01-13T07:29:51.050Z,8.38
2023-01-13T07:32:18.258Z,8.28
2023-01-13T07:34:45.598Z,8.33
2023-01-13T07:37:12.747Z,8.34
2023-01-13T07:39:39.978Z,8.34
2023-01-13T07:42:09.109Z,8.32
2023-01-13T07:44:36.374Z,8.35
2023-01-13T07:47:03.665Z,8.37
2023-01-13T07:49:30.896Z,8.33
2023-01-13T07:51:58.083Z,8.31
2023-01-13T07:54:39.730Z,8.33
2023-01-13T07:57:09.498Z,8.32
2023-01-13T07:59:36.679Z,8.34
2023-01-13T08:02:04.071Z,8.42
2023-01-13T08:04:31.508Z,8.38
2023-01-13T08:06:58.673Z,8.39
2023-01-13T08:09:25.913Z,8.39
2023-01-13T08:11:54.179Z,8.35
2023-01-13T08:14:22.853Z,8.43
2023-01-13T08:16:50.025Z,8.44
2023-01-13T08:19:17.192Z,8.49
2023-01-13T08:21:44.452Z,8.49
2023-01-13T08:24:11.863Z,8.51
2023-01-13T08:26:39.168Z,8.49
2023-01-13T08:29:06.383Z,8.50
2023-01-13T08:31:34.991Z,8.53
2023-01-13T08:34:02.296Z,8.54
2023-01-13T08:36:29.530Z,8.53
2023-01-13T08:38:56.798Z,8.53
2023-01-13T08:41:24.176Z,8.59
2023-01-13T08:43:53.663Z,8.62
2023-01-13T08:46:20.927Z,8.63
2023-01-13T08:48:49.563Z,8.71
2023-01-13T08:51:16.858Z,8.81
2023-01-13T08:53:44.014Z,8.80
2023-01-13T08:56:11.276Z,8.80
2023-01-13T08:58:38.553Z,8.80
2023-01-13T09:01:06.789Z,8.78
2023-01-13T09:03:34.247Z,8.81
2023-01-13T09:06:02.911Z,8.76
2023-01-13T09:08:30.142Z,8.88
2023-01-13T09:10:57.656Z,8.89
2023-01-13T09:13:25.242Z,8.81
2023-01-13T09:15:52.650Z,8.86
2023-01-13T09:18:19.898Z,8.86
2023-01-13T09:20:47.294Z,8.86
2023-01-13T09:23:15.862Z,8.87
2023-01-13T09:25:43.153Z,8.94
2023-01-13T09:28:10.319Z,8.93
2023-01-13T09:30:37.561Z,8.91
2023-01-13T09:33:04.905Z,8.94
2023-01-13T09:35:32.154Z,8.99
2023-01-13T09:37:59.296Z,8.97
2023-01-13T09:40:27.999Z,8.94
2023-01-13T09:43:00.052Z,8.96
2023-01-13T09:45:31.394Z,9.02
2023-01-13T09:48:06.128Z,8.98
2023-01-13T09:50:45.777Z,8.96
2023-01-13T09:53:18.408Z,9.00
2023-01-13T09:55:47.275Z,8.98
2023-01-13T09:58:16.499Z,9.03
2023-01-13T10:00:50.603Z,9.05
2023-01-13T10:03:25.135Z,9.09
2023-01-13T10:05:59.950Z,9.12
2023-01-13T10:08:29.592Z,9.18
2023-01-13T10:11:00.369Z,9.17
2023-01-13T10:13:29.252Z,9.13
2023-01-13T10:16:17.070Z,9.13
2023-01-13T10:19:00.515Z,8.93
2023-01-13T10:21:52.566Z,8.67
2023-01-13T10:24:28.701Z,8.44
2023-01-13T10:27:03.495Z,8.31
2023-01-13T10:29:32.473Z,8.21
2023-01-13T10:32:00.337Z,7.98
2023-01-13T10:34:28.859Z,7.76
2023-01-13T10:37:01.067Z,7.64
2023-01-13T10:39:38.118Z,7.60
2023-01-13T10:42:12.298Z,7.54
2023-01-13T10:44:48.047Z,7.60
2023-01-13T10:47:28.110Z,7.67
2023-01-13T10:50:23.045Z,7.77
2023-01-13T10:52:59.615Z,7.89
2023-01-13T10:55:29.424Z,7.96
2023-01-13T10:58:11.073Z,8.00
2023-01-13T11:00:38.490Z,8.05
2023-01-13T11:03:14.976Z,8.13
2023-01-13T11:05:49.680Z,8.18
2023-01-13T11:08:19.359Z,8.20
2023-01-13T11:10:49.032Z,8.21
2023-01-13T11:13:21.594Z,8.25
2023-01-13T11:15:55.073Z,8.32
2023-01-13T11:18:32.033Z,8.32
2023-01-13T11:21:03.420Z,8.38
2023-01-13T11:23:35.334Z,8.42
2023-01-13T11:26:06.823Z,8.53
2023-01-13T11:28:44.239Z,8.52
2023-01-13T11:31:18.513Z,8.51
2023-01-13T11:33:53.394Z,8.54
2023-01-13T11:36:24.765Z,8.57
2023-01-13T11:38:54.877Z,8.64
2023-01-13T11:41:36.806Z,8.76
2023-01-13T11:44:16.268Z,8.63
2023-01-13T11:46:43.596Z,8.60
2023-01-13T11:49:20.370Z,8.69
2023-01-13T11:51:55.320Z,8.74
2023-01-13T11:54:43.059Z,8.84
2023-01-13T11:57:24.261Z,8.85
2023-01-13T12:00:14.323Z,8.93
2023-01-13T12:02:52.199Z,8.89
2023-01-13T12:05:27.048Z,8.70
2023-01-13T12:08:03.667Z,8.54
2023-01-13T12:10:45.187Z,8.44
2023-01-13T12:13:24.887Z,8.28
2023-01-13T12:16:08.967Z,8.19
2023-01-13T12:19:07.082Z,8.20
2023-01-13T12:21:38.084Z,8.20
2023-01-13T12:24:16.440Z,8.24
2023-01-13T12:26:49.474Z,8.24
2023-01-13T12:29:18.449Z,8.27
2023-01-13T12:31:48.347Z,8.32
2023-01-13T12:34:47.087Z,8.38
2023-01-13T12:37:21.125Z,8.37
2023-01-13T12:39:59.333Z,8.39
2023-01-13T12:42:33.404Z,8.38
2023-01-13T12:45:20.889Z,8.42
2023-01-13T12:47:49.629Z,8.50
2023-01-13T12:50:38.319Z,8.46
2023-01-13T12:53:30.840Z,8.43
2023-01-13T12:56:40.025Z,8.48
2023-01-13T12:59:43.505Z,8.57
2023-01-13T13:02:34.188Z,8.59
2023-01-13T13:05:36.591Z,8.66
2023-01-13T13:08:11.657Z,8.65
2023-01-13T13:10:42.770Z,8.72
2023-01-13T13:13:39.525Z,8.74
2023-01-13T13:16:44.492Z,8.83
2023-01-13T13:19:40.725Z,8.84
2023-01-13T13:22:44.265Z,8.85
2023-01-13T13:25:30.770Z,8.82
2023-01-13T13:28:18.924Z,8.76
2023-01-13T13:31:02.466Z,8.77
2023-01-13T13:33:45.074Z,8.59
2023-01-13T13:36:30.098Z,8.55
2023-01-13T13:39:10.340Z,8.56
2023-01-13T13:41:46.860Z,8.56
2023-01-13T13:44:17.985Z,8.46
2023-01-13T13:46:47.567Z,8.42
2023-01-13T13:49:16.009Z,8.39
2023-01-13T13:51:48.070Z,8.30
2023-01-13T13:54:18.419Z,8.24
2023-01-13T13:56:48.552Z,8.29
2023-01-13T13:59:19.523Z,8.39
2023-01-13T14:01:51.775Z,8.43
2023-01-13T14:04:22.384Z,8.46
2023-01-13T14:06:51.167Z,8.56
2023-01-13T14:09:19.759Z,8.62
2023-01-13T14:12:00.083Z,8.71
2023-01-13T14:14:28.181Z,8.72
2023-01-13T14:16:55.728Z,8.76
2023-01-13T14:19:29.455Z,8.76
2023-01-13T14:21:57.541Z,8.76
2023-01-13T14:24:25.072Z,8.73
2023-01-13T14:26:52.572Z,8.74
2023-01-13T14:29:23.624Z,8.74
2023-01-13T14:31:53.037Z,8.83
2023-01-13T14:34:31.942Z,8.87
2023-01-13T14:37:00.592Z,8.93
2023-01-13T14:39:37.550Z,8.95
2023-01-13T14:42:12.279Z,8.95
2023-01-13T14:44:44.836Z,8.94
2023-01-13T14:47:22.462Z,8.84
2023-01-13T14:49:56.954Z,8.51
2023-01-13T14:52:26.730Z,8.35
2023-01-13T14:55:11.697Z,8.29
2023-01-13T14:57:39.373Z,8.32
2023-01-13T15:00:20.688Z,8.42
2023-01-13T15:02:50.336Z,8.51
2023-01-13T15:05:47.764Z,8.47
2023-01-13T15:08:35.577Z,8.54
2023-01-13T15:11:05.304Z,8.52
2023-01-13T15:13:38.323Z,8.54
2023-01-13T15:16:13.514Z,8.45
2023-01-13T15:18:41.130Z,8.35
2023-01-13T15:21:09.038Z,8.37
2023-01-13T15:23:36.772Z,8.37
2023-01-13T15:26:04.214Z,8.34
2023-01-13T15:28:32.092Z,8.29
2023-01-13T15:30:59.258Z,8.39
2023-01-13T15:33:27.910Z,8.39
2023-01-13T15:35:55.998Z,8.38
2023-01-13T15:38:24.177Z,8.35
2023-01-13T15:40:52.139Z,8.45
2023-01-13T15:43:21.725Z,8.38
2023-01-13T15:45:49.231Z,8.42
2023-01-13T15:48:16.763Z,8.52
2023-01-13T15:50:45.379Z,8.48
2023-01-13T15:53:14.477Z,8.55
2023-01-13T15:55:43.596Z,8.54
2023-01-13T15:58:11.972Z,8.54
2023-01-13T16:00:39.475Z,8.45
2023-01-13T16:03:11.115Z,8.48
2023-01-13T16:05:38.320Z,8.47
2023-01-13T16:08:13.619Z,8.49
2023-01-13T16:10:41.132Z,8.47
2023-01-13T16:13:08.297Z,8.56
2023-01-13T16:15:36.238Z,8.54
2023-01-13T16:18:04.792Z,8.62
2023-01-13T16:20:32.312Z,8.62
2023-01-13T16:22:59.481Z,8.67
2023-01-13T16:25:28.085Z,8.71
2023-01-13T16:27:55.249Z,8.70
2023-01-13T16:30:34.142Z,8.71
2023-01-13T16:33:01.544Z,8.75
2023-01-13T16:35:29.445Z,8.77
2023-01-13T16:37:56.732Z,8.76
2023-01-13T16:40:27.231Z,8.77
2023-01-13T16:42:56.978Z,8.74
2023-01-13T16:45:24.757Z,8.73
2023-01-13T16:47:52.380Z,8.72
2023-01-13T16:50:30.545Z,8.73
2023-01-13T16:52:57.755Z,8.74
2023-01-13T16:55:24.943Z,8.76
2023-01-13T16:57:52.252Z,8.71
2023-01-13T17:00:21.867Z,8.72
2023-01-13T17:02:49.374Z,8.70
2023-01-13T17:05:17.178Z,8.63
2023-01-13T17:07:46.060Z,8.59
2023-01-13T17:10:15.387Z,8.57
2023-01-13T17:12:42.758Z,8.60
2023-01-13T17:15:11.881Z,8.59
2023-01-13T17:17:41.992Z,8.57
2023-01-13T17:20:11.916Z,8.60
2023-01-13T17:22:39.139Z,8.57
2023-01-13T17:25:07.411Z,8.49
2023-01-13T17:27:34.762Z,8.32
2023-01-13T17:30:02.027Z,8.28
2023-01-13T17:32:29.215Z,8.25
2023-01-13T17:34:57.775Z,8.22
2023-01-13T17:37:24.963Z,8.18
2023-01-13T17:39:52.256Z,7.94
2023-01-13T17:42:19.879Z,7.79
2023-01-13T17:44:47.119Z,7.72
2023-01-13T17:47:14.943Z,7.70
2023-01-13T17:49:42.216Z,7.61
2023-01-13T17:52:10.802Z,7.47
2023-01-13T17:54:38.073Z,6.94
2023-01-13T17:57:05.413Z,6.87
2023-01-13T17:59:32.676Z,6.71
2023-01-13T18:01:59.928Z,6.39
2023-01-13T18:04:27.286Z,6.30
2023-01-13T18:06:54.941Z,6.28
2023-01-13T18:09:23.836Z,6.39
2023-01-13T18:11:51.102Z,6.61
2023-01-13T18:14:18.384Z,6.77
2023-01-13T18:16:45.618Z,6.93
2023-01-13T18:19:13.023Z,7.05
2023-01-13T18:21:40.211Z,7.03
2023-01-13T18:24:11.367Z,7.09
2023-01-13T18:26:40.063Z,7.13
2023-01-13T18:29:07.250Z,7.21
2023-01-13T18:31:34.501Z,7.24
2023-01-13T18:34:01.738Z,7.24
2023-01-13T18:36:29.008Z,7.30
2023-01-13T18:38:57.671Z,7.39
2023-01-13T18:41:25.450Z,7.48
2023-01-13T18:43:54.065Z,7.41
2023-01-13T18:46:21.383Z,7.34
2023-01-13T18:48:48.614Z,7.32
2023-01-13T18:51:15.913Z,7.36
2023-01-13T18:53:43.075Z,7.38
2023-01-13T18:56:10.767Z,7.39
2023-01-13T18:58:39.484Z,7.43
2023-01-13T19:01:08.168Z,7.52
2023-01-13T19:03:35.499Z,7.51
2023-01-13T19:06:04.354Z,7.51
2023-01-13T19:08:32.052Z,7.50
2023-01-13T19:11:04.192Z,7.48
2023-01-13T19:13:31.460Z,7.51
2023-01-13T19:16:04.588Z,7.52
2023-01-13T19:18:33.331Z,7.49
2023-01-13T19:21:01.861Z,7.46
2023-01-13T19:23:29.624Z,7.45
2023-01-13T19:25:59.086Z,7.49
2023-01-13T19:28:26.433Z,7.47
2023-01-13T19:30:53.883Z,7.57
2023-01-13T19:33:21.164Z,7.59
2023-01-13T19:35:53.178Z,7.61
2023-01-13T19:38:20.467Z,7.64
2023-01-13T19:40:52.924Z,7.61
2023-01-13T19:43:20.191Z,7.58
2023-01-13T19:45:50.515Z,7.55
2023-01-13T19:48:17.782Z,7.53
2023-01-13T19:50:45.034Z,7.54
2023-01-13T19:53:17.064Z,7.59
2023-01-13T19:55:45.273Z,7.62
2023-01-13T19:58:12.452Z,7.55
2023-01-13T20:00:39.842Z,7.47
2023-01-13T20:03:07.149Z,7.48
2023-01-13T20:05:34.474Z,7.45
2023-01-13T20:08:01.659Z,7.46
2023-01-13T20:10:30.358Z,7.43
2023-01-13T20:12:57.711Z,7.47
2023-01-13T20:15:25.108Z,7.51
2023-01-13T20:17:52.302Z,7.49
2023-01-13T20:20:19.717Z,7.49
2023-01-13T20:22:47.123Z,7.51
2023-01-13T20:25:14.445Z,7.44
2023-01-13T20:27:43.555Z,7.44
2023-01-13T20:30:11.612Z,7.45
2023-01-13T20:32:38.865Z,7.47
2023-01-13T20:35:07.110Z,7.48
2023-01-13T20:37:34.667Z,7.48
2023-01-13T20:40:01.982Z,7.51
2023-01-13T20:42:29.154Z,7.45
2023-01-13T20:44:59.479Z,7.33
2023-01-13T20:47:27.685Z,7.11
2023-01-13T20:49:55.018Z,6.95
2023-01-13T20:52:22.178Z,6.90
2023-01-13T20:54:49.467Z,6.88
2023-01-13T20:57:17.074Z,6.86
2023-01-13T20:59:44.351Z,6.70
2023-01-13T21:02:15.450Z,6.55
2023-01-13T21:04:43.408Z,6.51
2023-01-13T21:07:10.664Z,6.44
2023-01-13T21:09:38.063Z,6.38
2023-01-13T21:12:06.502Z,6.39
2023-01-13T21:14:34.485Z,6.46
2023-01-13T21:17:01.835Z,6.55
2023-01-13T21:19:30.419Z,6.62
2023-01-13T21:21:57.806Z,6.71
2023-01-13T21:24:25.823Z,6.86
2023-01-13T21:26:53.043Z,6.98
2023-01-13T21:29:20.409Z,7.12
2023-01-13T21:31:47.752Z,7.19
2023-01-13T21:34:15.056Z,7.28
2023-01-13T21:36:43.694Z,7.33
2023-01-13T21:39:11.239Z,7.35
2023-01-13T21:41:38.432Z,7.36
2023-01-13T21:44:06.151Z,7.28
2023-01-13T21:46:33.525Z,7.19
2023-01-13T21:49:00.979Z,7.16
2023-01-13T21:51:28.810Z,7.16
2023-01-13T21:53:57.548Z,7.11
2023-01-13T21:56:25.044Z,7.17
2023-01-13T21:58:52.342Z,7.16
2023-01-13T22:01:19.716Z,7.13
2023-01-13T22:03:47.089Z,7.13
2023-01-13T22:06:14.441Z,7.09
2023-01-13T22:08:41.918Z,7.08
2023-01-13T22:11:10.489Z,7.06
2023-01-13T22:13:37.701Z,7.04
2023-01-13T22:16:05.704Z,7.06
2023-01-13T22:18:32.983Z,7.08
2023-01-13T22:21:00.742Z,7.10
2023-01-13T22:23:28.664Z,7.10
2023-01-13T22:26:00.849Z,7.08
2023-01-13T22:28:29.583Z,7.07
2023-01-13T22:30:56.750Z,6.99
2023-01-13T22:33:24.020Z,6.99
2023-01-13T22:35:54.462Z,6.97
2023-01-13T22:38:21.671Z,6.98
2023-01-13T22:40:55.803Z,7.00
2023-01-13T22:43:23.051Z,7.06
2023-01-13T22:45:57.921Z,7.05
2023-01-13T22:48:25.306Z,6.98
2023-01-13T22:50:52.541Z,6.96
2023-01-13T22:53:20.465Z,6.93
2023-01-13T22:55:54.203Z,6.89
2023-01-13T22:58:22.222Z,6.85
2023-01-13T23:00:49.733Z,6.89
2023-01-13T23:03:19.107Z,6.88
2023-01-13T23:05:46.431Z,6.96
2023-01-13T23:08:14.417Z,6.94
2023-01-13T23:10:41.680Z,6.90
2023-01-13T23:13:09.001Z,6.89
2023-01-13T23:15:36.245Z,6.97
2023-01-13T23:18:03.759Z,7.00
2023-01-13T23:20:33.598Z,7.03
2023-01-13T23:23:00.866Z,7.02
2023-01-13T23:25:28.026Z,7.02
2023-01-13T23:27:55.265Z,6.98
2023-01-13T23:30:22.903Z,6.94
2023-01-13T23:32:50.049Z,6.92
2023-01-13T23:35:17.314Z,6.91
2023-01-13T23:37:45.993Z,6.92
2023-01-13T23:40:13.926Z,6.94
2023-01-13T23:42:41.158Z,6.90
2023-01-13T23:45:10.236Z,6.85
2023-01-13T23:47:37.588Z,6.93
2023-01-13T23:50:08.737Z,6.95
2023-01-13T23:52:36.000Z,6.94
2023-01-13T23:55:05.372Z,6.93
2023-01-13T23:57:32.764Z,6.98
2023-01-13T23:59:59.971Z,6.94
